sensor_id;sensor_type;location;lat;lon;timestamp;P1;durP1;ratioP1;P2;durP2;ratioP2
23682;SDS011;24897;53.514;10.482;2023-11-21T00:00:07;71.90;;;45.20;;
23682;SDS011;24897;53.514;10.482;2023-11-21T00:02:55;77.07;;;45.13;;
23682;SDS011;24897;53.514;10.482;2023-11-21T00:05:39;77.23;;;47.17;;
23682;SDS011;24897;53.514;10.482;2023-11-21T00:08:25;76.03;;;46.33;;
23682;SDS011;24897;53.514;10.482;2023-11-21T00:11:09;78.67;;;47.90;;
23682;SDS011;24897;53.514;10.482;2023-11-21T00:13:53;73.73;;;46.90;;
23682;SDS011;24897;53.514;10.482;2023-11-21T00:16:38;66.07;;;45.47;;
23682;SDS011;24897;53.514;10.482;2023-11-21T00:19:23;72.30;;;47.53;;
23682;SDS011;24897;53.514;10.482;2023-11-21T00:22:08;65.80;;;42.03;;
23682;SDS011;24897;53.514;10.482;2023-11-21T00:24:52;59.07;;;40.30;;
23682;SDS011;24897;53.514;10.482;2023-11-21T00:27:36;62.80;;;41.20;;
23682;SDS011;24897;53.514;10.482;2023-11-21T00:30:20;64.43;;;42.60;;
23682;SDS011;24897;53.514;10.482;2023-11-21T00:33:06;60.90;;;40.27;;
23682;SDS011;24897;53.514;10.482;2023-11-21T00:35:50;57.33;;;38.63;;
23682;SDS011;24897;53.514;10.482;2023-11-21T00:38:35;58.77;;;36.47;;
23682;SDS011;24897;53.514;10.482;2023-11-21T00:41:19;56.30;;;35.90;;
23682;SDS011;24897;53.514;10.482;2023-11-21T00:44:03;54.50;;;35.40;;
23682;SDS011;24897;53.514;10.482;2023-11-21T00:46:48;55.57;;;34.73;;
23682;SDS011;24897;53.514;10.482;2023-11-21T00:49:32;56.97;;;37.00;;
23682;SDS011;24897;53.514;10.482;2023-11-21T00:52:16;55.30;;;36.40;;
23682;SDS011;24897;53.514;10.482;2023-11-21T00:55:00;57.40;;;37.70;;
23682;SDS011;24897;53.514;10.482;2023-11-21T00:57:46;53.33;;;37.27;;
23682;SDS011;24897;53.514;10.482;2023-11-21T01:00:31;54.30;;;36.83;;
23682;SDS011;24897;53.514;10.482;2023-11-21T01:03:15;49.93;;;37.63;;
23682;SDS011;24897;53.514;10.482;2023-11-21T01:06:00;51.80;;;38.23;;
23682;SDS011;24897;53.514;10.482;2023-11-21T01:08:44;51.73;;;37.90;;
23682;SDS011;24897;53.514;10.482;2023-11-21T01:11:28;52.80;;;38.80;;
23682;SDS011;24897;53.514;10.482;2023-11-21T01:14:12;52.07;;;37.90;;
23682;SDS011;24897;53.514;10.482;2023-11-21T01:16:57;49.50;;;38.10;;
23682;SDS011;24897;53.514;10.482;2023-11-21T01:19:41;47.53;;;36.63;;
23682;SDS011;24897;53.514;10.482;2023-11-21T01:22:25;46.77;;;36.90;;
23682;SDS011;24897;53.514;10.482;2023-11-21T01:25:10;44.63;;;35.03;;
23682;SDS011;24897;53.514;10.482;2023-11-21T01:27:54;46.23;;;36.03;;
23682;SDS011;24897;53.514;10.482;2023-11-21T01:30:38;45.60;;;35.47;;
23682;SDS011;24897;53.514;10.482;2023-11-21T01:33:22;44.13;;;34.53;;
23682;SDS011;24897;53.514;10.482;2023-11-21T01:36:08;45.17;;;35.03;;
23682;SDS011;24897;53.514;10.482;2023-11-21T01:38:52;43.37;;;35.17;;
23682;SDS011;24897;53.514;10.482;2023-11-21T01:41:37;42.27;;;34.07;;
23682;SDS011;24897;53.514;10.482;2023-11-21T01:44:20;44.73;;;34.67;;
23682;SDS011;24897;53.514;10.482;2023-11-21T01:47:05;41.70;;;33.20;;
23682;SDS011;24897;53.514;10.482;2023-11-21T01:49:50;42.97;;;34.00;;
23682;SDS011;24897;53.514;10.482;2023-11-21T01:52:34;41.83;;;34.90;;
23682;SDS011;24897;53.514;10.482;2023-11-21T01:55:19;39.07;;;32.73;;
23682;SDS011;24897;53.514;10.482;2023-11-21T01:58:04;42.07;;;34.43;;
23682;SDS011;24897;53.514;10.482;2023-11-21T02:00:48;40.80;;;34.10;;
23682;SDS011;24897;53.514;10.482;2023-11-21T02:03:34;42.20;;;33.87;;
23682;SDS011;24897;53.514;10.482;2023-11-21T02:06:18;40.47;;;33.33;;
23682;SDS011;24897;53.514;10.482;2023-11-21T02:09:03;40.93;;;33.23;;
23682;SDS011;24897;53.514;10.482;2023-11-21T02:11:48;41.50;;;34.13;;
23682;SDS011;24897;53.514;10.482;2023-11-21T02:14:33;41.27;;;33.90;;
23682;SDS011;24897;53.514;10.482;2023-11-21T02:17:17;41.40;;;34.63;;
23682;SDS011;24897;53.514;10.482;2023-11-21T02:20:02;41.37;;;34.63;;
23682;SDS011;24897;53.514;10.482;2023-11-21T02:25:43;45.33;;;35.43;;
23682;SDS011;24897;53.514;10.482;2023-11-21T02:28:27;42.60;;;33.60;;
23682;SDS011;24897;53.514;10.482;2023-11-21T02:31:12;47.27;;;33.83;;
23682;SDS011;24897;53.514;10.482;2023-11-21T02:33:56;45.40;;;35.17;;
23682;SDS011;24897;53.514;10.482;2023-11-21T02:36:40;45.80;;;35.07;;
23682;SDS011;24897;53.514;10.482;2023-11-21T02:39:26;44.70;;;34.90;;
23682;SDS011;24897;53.514;10.482;2023-11-21T02:42:10;45.40;;;35.93;;
23682;SDS011;24897;53.514;10.482;2023-11-21T02:44:54;46.47;;;35.10;;
23682;SDS011;24897;53.514;10.482;2023-11-21T02:47:38;42.43;;;34.83;;
23682;SDS011;24897;53.514;10.482;2023-11-21T02:50:23;40.93;;;34.20;;
23682;SDS011;24897;53.514;10.482;2023-11-21T02:53:07;41.33;;;33.17;;
23682;SDS011;24897;53.514;10.482;2023-11-21T02:55:51;41.97;;;33.63;;
23682;SDS011;24897;53.514;10.482;2023-11-21T02:58:35;45.23;;;36.70;;
23682;SDS011;24897;53.514;10.482;2023-11-21T03:01:19;44.47;;;34.77;;
23682;SDS011;24897;53.514;10.482;2023-11-21T03:04:04;43.90;;;35.10;;
23682;SDS011;24897;53.514;10.482;2023-11-21T03:06:49;44.33;;;34.07;;
23682;SDS011;24897;53.514;10.482;2023-11-21T03:09:33;45.63;;;34.70;;
23682;SDS011;24897;53.514;10.482;2023-11-21T03:12:17;41.87;;;33.73;;
23682;SDS011;24897;53.514;10.482;2023-11-21T03:15:04;43.93;;;33.90;;
23682;SDS011;24897;53.514;10.482;2023-11-21T03:17:49;42.87;;;33.60;;
23682;SDS011;24897;53.514;10.482;2023-11-21T03:20:33;44.27;;;34.17;;
23682;SDS011;24897;53.514;10.482;2023-11-21T03:23:18;44.37;;;33.53;;
23682;SDS011;24897;53.514;10.482;2023-11-21T03:26:03;44.90;;;35.40;;
23682;SDS011;24897;53.514;10.482;2023-11-21T03:28:47;45.57;;;34.77;;
23682;SDS011;24897;53.514;10.482;2023-11-21T03:31:31;44.83;;;34.63;;
23682;SDS011;24897;53.514;10.482;2023-11-21T03:34:22;46.20;;;35.83;;
23682;SDS011;24897;53.514;10.482;2023-11-21T03:37:10;45.00;;;35.03;;
23682;SDS011;24897;53.514;10.482;2023-11-21T03:39:57;45.07;;;34.67;;
23682;SDS011;24897;53.514;10.482;2023-11-21T03:42:41;44.30;;;34.87;;
23682;SDS011;24897;53.514;10.482;2023-11-21T03:45:25;45.37;;;34.73;;
23682;SDS011;24897;53.514;10.482;2023-11-21T03:48:09;46.27;;;34.87;;
23682;SDS011;24897;53.514;10.482;2023-11-21T03:50:57;44.60;;;35.80;;
23682;SDS011;24897;53.514;10.482;2023-11-21T03:53:41;43.73;;;34.37;;
23682;SDS011;24897;53.514;10.482;2023-11-21T03:56:25;45.93;;;35.40;;
23682;SDS011;24897;53.514;10.482;2023-11-21T03:59:09;46.07;;;36.63;;
23682;SDS011;24897;53.514;10.482;2023-11-21T04:01:55;45.03;;;35.87;;
23682;SDS011;24897;53.514;10.482;2023-11-21T04:04:40;45.57;;;35.30;;
23682;SDS011;24897;53.514;10.482;2023-11-21T04:07:25;48.87;;;36.30;;
23682;SDS011;24897;53.514;10.482;2023-11-21T04:10:09;46.97;;;36.30;;
23682;SDS011;24897;53.514;10.482;2023-11-21T04:12:56;44.57;;;35.13;;
23682;SDS011;24897;53.514;10.482;2023-11-21T04:15:40;45.63;;;33.90;;
23682;SDS011;24897;53.514;10.482;2023-11-21T04:18:24;45.83;;;34.70;;
23682;SDS011;24897;53.514;10.482;2023-11-21T04:21:08;40.83;;;33.73;;
23682;SDS011;24897;53.514;10.482;2023-11-21T04:23:52;42.70;;;34.00;;
23682;SDS011;24897;53.514;10.482;2023-11-21T04:26:36;43.33;;;35.07;;
23682;SDS011;24897;53.514;10.482;2023-11-21T04:29:21;43.37;;;34.90;;
23682;SDS011;24897;53.514;10.482;2023-11-21T04:32:06;45.30;;;35.23;;
23682;SDS011;24897;53.514;10.482;2023-11-21T04:34:51;42.63;;;33.60;;
23682;SDS011;24897;53.514;10.482;2023-11-21T04:37:35;43.87;;;34.70;;
23682;SDS011;24897;53.514;10.482;2023-11-21T04:40:20;41.53;;;33.60;;
23682;SDS011;24897;53.514;10.482;2023-11-21T04:43:04;39.73;;;33.47;;
23682;SDS011;24897;53.514;10.482;2023-11-21T04:45:48;39.67;;;32.83;;
23682;SDS011;24897;53.514;10.482;2023-11-21T04:48:32;41.23;;;33.00;;
23682;SDS011;24897;53.514;10.482;2023-11-21T04:51:16;41.73;;;33.27;;
23682;SDS011;24897;53.514;10.482;2023-11-21T04:54:01;41.30;;;32.63;;
23682;SDS011;24897;53.514;10.482;2023-11-21T04:56:46;41.77;;;33.77;;
23682;SDS011;24897;53.514;10.482;2023-11-21T04:59:30;40.17;;;32.03;;
23682;SDS011;24897;53.514;10.482;2023-11-21T05:02:14;39.77;;;32.27;;
23682;SDS011;24897;53.514;10.482;2023-11-21T05:04:58;39.00;;;32.27;;
23682;SDS011;24897;53.514;10.482;2023-11-21T05:07:44;38.63;;;32.60;;
23682;SDS011;24897;53.514;10.482;2023-11-21T05:10:28;42.23;;;33.03;;
23682;SDS011;24897;53.514;10.482;2023-11-21T05:13:13;39.97;;;33.30;;
23682;SDS011;24897;53.514;10.482;2023-11-21T05:15:59;41.90;;;33.17;;
23682;SDS011;24897;53.514;10.482;2023-11-21T05:18:43;39.13;;;33.00;;
23682;SDS011;24897;53.514;10.482;2023-11-21T05:21:28;39.93;;;33.27;;
23682;SDS011;24897;53.514;10.482;2023-11-21T05:24:13;40.40;;;34.53;;
23682;SDS011;24897;53.514;10.482;2023-11-21T05:26:57;40.13;;;33.67;;
23682;SDS011;24897;53.514;10.482;2023-11-21T05:29:42;41.07;;;34.50;;
23682;SDS011;24897;53.514;10.482;2023-11-21T05:32:26;39.63;;;34.70;;
23682;SDS011;24897;53.514;10.482;2023-11-21T05:35:11;41.47;;;33.10;;
23682;SDS011;24897;53.514;10.482;2023-11-21T05:37:59;40.53;;;34.27;;
23682;SDS011;24897;53.514;10.482;2023-11-21T05:40:44;43.40;;;34.00;;
23682;SDS011;24897;53.514;10.482;2023-11-21T05:43:28;41.53;;;33.53;;
23682;SDS011;24897;53.514;10.482;2023-11-21T05:46:14;41.20;;;34.80;;
23682;SDS011;24897;53.514;10.482;2023-11-21T05:48:58;42.20;;;35.10;;
23682;SDS011;24897;53.514;10.482;2023-11-21T05:51:42;44.63;;;35.73;;
23682;SDS011;24897;53.514;10.482;2023-11-21T05:54:27;43.50;;;35.30;;
23682;SDS011;24897;53.514;10.482;2023-11-21T05:57:12;44.43;;;36.17;;
23682;SDS011;24897;53.514;10.482;2023-11-21T05:59:56;44.60;;;36.00;;
23682;SDS011;24897;53.514;10.482;2023-11-21T06:02:40;41.23;;;34.63;;
23682;SDS011;24897;53.514;10.482;2023-11-21T06:05:25;46.67;;;36.77;;
23682;SDS011;24897;53.514;10.482;2023-11-21T06:08:10;43.90;;;35.27;;
23682;SDS011;24897;53.514;10.482;2023-11-21T06:10:54;43.60;;;35.67;;
23682;SDS011;24897;53.514;10.482;2023-11-21T06:13:39;43.20;;;35.30;;
23682;SDS011;24897;53.514;10.482;2023-11-21T06:16:24;43.40;;;36.10;;
23682;SDS011;24897;53.514;10.482;2023-11-21T06:19:08;45.87;;;37.47;;
23682;SDS011;24897;53.514;10.482;2023-11-21T06:21:53;47.60;;;37.57;;
23682;SDS011;24897;53.514;10.482;2023-11-21T06:24:38;46.30;;;37.77;;
23682;SDS011;24897;53.514;10.482;2023-11-21T06:27:21;47.77;;;36.97;;
23682;SDS011;24897;53.514;10.482;2023-11-21T06:30:08;45.13;;;37.97;;
23682;SDS011;24897;53.514;10.482;2023-11-21T06:32:53;45.00;;;36.80;;
23682;SDS011;24897;53.514;10.482;2023-11-21T06:35:38;47.73;;;37.97;;
23682;SDS011;24897;53.514;10.482;2023-11-21T06:38:24;48.50;;;38.50;;
23682;SDS011;24897;53.514;10.482;2023-11-21T06:41:08;48.37;;;39.07;;
23682;SDS011;24897;53.514;10.482;2023-11-21T06:43:52;45.60;;;37.07;;
23682;SDS011;24897;53.514;10.482;2023-11-21T06:46:36;45.43;;;37.60;;
23682;SDS011;24897;53.514;10.482;2023-11-21T06:49:23;43.13;;;36.73;;
23682;SDS011;24897;53.514;10.482;2023-11-21T06:52:07;43.30;;;35.93;;
23682;SDS011;24897;53.514;10.482;2023-11-21T06:54:51;42.37;;;36.83;;
23682;SDS011;24897;53.514;10.482;2023-11-21T06:57:35;44.63;;;36.17;;
23682;SDS011;24897;53.514;10.482;2023-11-21T07:00:20;45.27;;;38.20;;
23682;SDS011;24897;53.514;10.482;2023-11-21T07:03:04;45.63;;;38.87;;
23682;SDS011;24897;53.514;10.482;2023-11-21T07:05:48;47.37;;;39.20;;
23682;SDS011;24897;53.514;10.482;2023-11-21T07:08:32;45.53;;;37.90;;
23682;SDS011;24897;53.514;10.482;2023-11-21T07:11:16;47.37;;;39.00;;
23682;SDS011;24897;53.514;10.482;2023-11-21T07:14:00;50.70;;;40.03;;
23682;SDS011;24897;53.514;10.482;2023-11-21T07:16:50;48.53;;;39.80;;
23682;SDS011;24897;53.514;10.482;2023-11-21T07:19:36;49.43;;;39.73;;
23682;SDS011;24897;53.514;10.482;2023-11-21T07:22:20;47.87;;;37.70;;
23682;SDS011;24897;53.514;10.482;2023-11-21T07:25:05;49.80;;;38.50;;
23682;SDS011;24897;53.514;10.482;2023-11-21T07:27:51;47.30;;;39.10;;
23682;SDS011;24897;53.514;10.482;2023-11-21T07:30:36;49.37;;;39.87;;
23682;SDS011;24897;53.514;10.482;2023-11-21T07:33:21;49.07;;;39.80;;
23682;SDS011;24897;53.514;10.482;2023-11-21T07:36:06;50.47;;;39.73;;
23682;SDS011;24897;53.514;10.482;2023-11-21T07:38:51;48.23;;;38.23;;
23682;SDS011;24897;53.514;10.482;2023-11-21T07:41:35;46.53;;;37.13;;
23682;SDS011;24897;53.514;10.482;2023-11-21T07:44:19;45.20;;;36.67;;
23682;SDS011;24897;53.514;10.482;2023-11-21T07:47:03;46.37;;;38.33;;
23682;SDS011;24897;53.514;10.482;2023-11-21T07:49:48;46.13;;;37.40;;
23682;SDS011;24897;53.514;10.482;2023-11-21T07:52:32;45.87;;;36.47;;
23682;SDS011;24897;53.514;10.482;2023-11-21T07:55:17;44.23;;;36.70;;
23682;SDS011;24897;53.514;10.482;2023-11-21T07:58:01;43.97;;;36.23;;
23682;SDS011;24897;53.514;10.482;2023-11-21T08:00:48;45.63;;;36.87;;
23682;SDS011;24897;53.514;10.482;2023-11-21T08:03:33;42.30;;;35.77;;
23682;SDS011;24897;53.514;10.482;2023-11-21T08:06:17;42.53;;;36.20;;
23682;SDS011;24897;53.514;10.482;2023-11-21T08:09:01;42.50;;;35.73;;
23682;SDS011;24897;53.514;10.482;2023-11-21T08:11:45;40.97;;;35.23;;
23682;SDS011;24897;53.514;10.482;2023-11-21T08:14:30;41.87;;;35.27;;
23682;SDS011;24897;53.514;10.482;2023-11-21T08:17:14;40.47;;;34.27;;
23682;SDS011;24897;53.514;10.482;2023-11-21T08:19:58;39.80;;;35.23;;
23682;SDS011;24897;53.514;10.482;2023-11-21T08:22:46;38.87;;;34.57;;
23682;SDS011;24897;53.514;10.482;2023-11-21T08:25:32;37.77;;;33.67;;
23682;SDS011;24897;53.514;10.482;2023-11-21T08:28:18;36.77;;;32.87;;
23682;SDS011;24897;53.514;10.482;2023-11-21T08:31:03;35.63;;;31.83;;
23682;SDS011;24897;53.514;10.482;2023-11-21T08:33:48;34.77;;;31.23;;
23682;SDS011;24897;53.514;10.482;2023-11-21T08:36:32;34.87;;;31.07;;
23682;SDS011;24897;53.514;10.482;2023-11-21T08:39:16;35.03;;;31.33;;
23682;SDS011;24897;53.514;10.482;2023-11-21T08:42:02;34.03;;;30.53;;
23682;SDS011;24897;53.514;10.482;2023-11-21T08:44:47;35.40;;;31.80;;
23682;SDS011;24897;53.514;10.482;2023-11-21T08:47:31;34.07;;;30.60;;
23682;SDS011;24897;53.514;10.482;2023-11-21T08:50:15;33.63;;;30.30;;
23682;SDS011;24897;53.514;10.482;2023-11-21T08:52:59;33.07;;;29.63;;
23682;SDS011;24897;53.514;10.482;2023-11-21T08:55:44;31.17;;;28.27;;
23682;SDS011;24897;53.514;10.482;2023-11-21T08:58:28;30.90;;;28.10;;
23682;SDS011;24897;53.514;10.482;2023-11-21T09:01:12;31.23;;;28.40;;
23682;SDS011;24897;53.514;10.482;2023-11-21T09:03:57;32.20;;;29.20;;
23682;SDS011;24897;53.514;10.482;2023-11-21T09:06:42;32.17;;;29.07;;
23682;SDS011;24897;53.514;10.482;2023-11-21T09:09:26;32.57;;;29.47;;
23682;SDS011;24897;53.514;10.482;2023-11-21T09:12:10;32.97;;;29.87;;
23682;SDS011;24897;53.514;10.482;2023-11-21T09:14:56;32.57;;;29.50;;
23682;SDS011;24897;53.514;10.482;2023-11-21T09:17:40;32.53;;;29.43;;
23682;SDS011;24897;53.514;10.482;2023-11-21T09:20:24;31.83;;;28.90;;
23682;SDS011;24897;53.514;10.482;2023-11-21T09:23:08;32.00;;;29.00;;
23682;SDS011;24897;53.514;10.482;2023-11-21T09:25:52;32.67;;;29.57;;
23682;SDS011;24897;53.514;10.482;2023-11-21T09:28:40;30.70;;;28.00;;
23682;SDS011;24897;53.514;10.482;2023-11-21T09:31:27;29.73;;;27.23;;
23682;SDS011;24897;53.514;10.482;2023-11-21T09:34:11;29.87;;;27.27;;
23682;SDS011;24897;53.514;10.482;2023-11-21T09:36:55;31.67;;;28.87;;
23682;SDS011;24897;53.514;10.482;2023-11-21T09:39:40;29.13;;;26.50;;
23682;SDS011;24897;53.514;10.482;2023-11-21T09:42:25;28.63;;;26.23;;
23682;SDS011;24897;53.514;10.482;2023-11-21T09:45:26;28.03;;;25.67;;
23682;SDS011;24897;53.514;10.482;2023-11-21T09:48:18;29.13;;;26.63;;
23682;SDS011;24897;53.514;10.482;2023-11-21T09:51:04;28.10;;;25.60;;
23682;SDS011;24897;53.514;10.482;2023-11-21T09:53:49;27.37;;;25.07;;
23682;SDS011;24897;53.514;10.482;2023-11-21T09:56:37;27.20;;;25.00;;
23682;SDS011;24897;53.514;10.482;2023-11-21T09:59:23;26.80;;;24.60;;
23682;SDS011;24897;53.514;10.482;2023-11-21T10:02:08;27.03;;;24.63;;
23682;SDS011;24897;53.514;10.482;2023-11-21T10:04:56;27.43;;;25.13;;
23682;SDS011;24897;53.514;10.482;2023-11-21T10:07:43;26.57;;;24.27;;
23682;SDS011;24897;53.514;10.482;2023-11-21T10:10:31;26.60;;;24.27;;
23682;SDS011;24897;53.514;10.482;2023-11-21T10:13:16;25.90;;;23.77;;
23682;SDS011;24897;53.514;10.482;2023-11-21T10:16:03;26.10;;;23.90;;
23682;SDS011;24897;53.514;10.482;2023-11-21T10:18:50;26.47;;;24.27;;
23682;SDS011;24897;53.514;10.482;2023-11-21T10:21:38;27.37;;;24.90;;
23682;SDS011;24897;53.514;10.482;2023-11-21T10:24:23;27.93;;;25.43;;
23682;SDS011;24897;53.514;10.482;2023-11-21T10:27:07;26.87;;;24.57;;
23682;SDS011;24897;53.514;10.482;2023-11-21T10:29:51;26.33;;;23.93;;
23682;SDS011;24897;53.514;10.482;2023-11-21T10:32:35;25.17;;;22.93;;
23682;SDS011;24897;53.514;10.482;2023-11-21T10:35:19;24.03;;;22.07;;
23682;SDS011;24897;53.514;10.482;2023-11-21T10:38:03;24.30;;;22.40;;
23682;SDS011;24897;53.514;10.482;2023-11-21T10:40:47;23.97;;;22.07;;
23682;SDS011;24897;53.514;10.482;2023-11-21T10:43:33;23.33;;;21.43;;
23682;SDS011;24897;53.514;10.482;2023-11-21T10:46:17;21.30;;;19.60;;
23682;SDS011;24897;53.514;10.482;2023-11-21T10:49:01;22.13;;;20.30;;
23682;SDS011;24897;53.514;10.482;2023-11-21T10:51:45;21.80;;;20.00;;
23682;SDS011;24897;53.514;10.482;2023-11-21T10:54:32;21.73;;;20.00;;
23682;SDS011;24897;53.514;10.482;2023-11-21T10:57:17;21.07;;;19.37;;
23682;SDS011;24897;53.514;10.482;2023-11-21T11:00:05;20.93;;;19.23;;
23682;SDS011;24897;53.514;10.482;2023-11-21T11:02:51;20.83;;;19.17;;
23682;SDS011;24897;53.514;10.482;2023-11-21T11:05:39;20.80;;;19.10;;
23682;SDS011;24897;53.514;10.482;2023-11-21T11:08:29;23.20;;;21.13;;
23682;SDS011;24897;53.514;10.482;2023-11-21T11:11:15;21.33;;;19.53;;
23682;SDS011;24897;53.514;10.482;2023-11-21T11:13:59;20.80;;;19.20;;
23682;SDS011;24897;53.514;10.482;2023-11-21T11:16:43;21.10;;;19.30;;
23682;SDS011;24897;53.514;10.482;2023-11-21T11:19:29;21.30;;;19.60;;
23682;SDS011;24897;53.514;10.482;2023-11-21T11:28:11;22.97;;;21.03;;
23682;SDS011;24897;53.514;10.482;2023-11-21T11:34:08;21.97;;;20.07;;
23682;SDS011;24897;53.514;10.482;2023-11-21T11:37:06;21.77;;;19.90;;
23682;SDS011;24897;53.514;10.482;2023-11-21T11:39:54;20.93;;;19.23;;
23682;SDS011;24897;53.514;10.482;2023-11-21T11:42:38;20.57;;;18.80;;
23682;SDS011;24897;53.514;10.482;2023-11-21T11:45:22;20.47;;;18.73;;
23682;SDS011;24897;53.514;10.482;2023-11-21T11:48:16;21.47;;;19.67;;
23682;SDS011;24897;53.514;10.482;2023-11-21T11:51:01;21.70;;;19.90;;
23682;SDS011;24897;53.514;10.482;2023-11-21T11:54:05;20.20;;;18.60;;
23682;SDS011;24897;53.514;10.482;2023-11-21T11:56:50;20.50;;;18.77;;
23682;SDS011;24897;53.514;10.482;2023-11-21T12:00:02;20.20;;;18.60;;
23682;SDS011;24897;53.514;10.482;2023-11-21T12:02:56;21.23;;;19.33;;
23682;SDS011;24897;53.514;10.482;2023-11-21T12:05:42;21.73;;;19.93;;
23682;SDS011;24897;53.514;10.482;2023-11-21T12:08:29;20.93;;;19.23;;
23682;SDS011;24897;53.514;10.482;2023-11-21T12:11:15;21.30;;;19.43;;
23682;SDS011;24897;53.514;10.482;2023-11-21T12:14:01;22.73;;;20.77;;
23682;SDS011;24897;53.514;10.482;2023-11-21T12:16:48;21.37;;;19.67;;
23682;SDS011;24897;53.514;10.482;2023-11-21T12:19:33;21.97;;;20.10;;
23682;SDS011;24897;53.514;10.482;2023-11-21T12:22:17;22.57;;;20.57;;
23682;SDS011;24897;53.514;10.482;2023-11-21T12:25:02;21.90;;;20.10;;
23682;SDS011;24897;53.514;10.482;2023-11-21T12:27:53;22.03;;;20.13;;
23682;SDS011;24897;53.514;10.482;2023-11-21T12:30:38;22.67;;;20.77;;
23682;SDS011;24897;53.514;10.482;2023-11-21T12:33:23;22.33;;;20.43;;
23682;SDS011;24897;53.514;10.482;2023-11-21T12:36:09;25.23;;;23.07;;
23682;SDS011;24897;53.514;10.482;2023-11-21T12:38:55;24.13;;;22.13;;
23682;SDS011;24897;53.514;10.482;2023-11-21T12:41:39;25.20;;;23.10;;
23682;SDS011;24897;53.514;10.482;2023-11-21T12:44:24;24.00;;;22.00;;
23682;SDS011;24897;53.514;10.482;2023-11-21T12:47:08;23.33;;;21.40;;
23682;SDS011;24897;53.514;10.482;2023-11-21T12:49:52;24.40;;;22.23;;
23682;SDS011;24897;53.514;10.482;2023-11-21T12:52:36;23.57;;;21.67;;
23682;SDS011;24897;53.514;10.482;2023-11-21T12:55:23;24.93;;;22.83;;
23682;SDS011;24897;53.514;10.482;2023-11-21T12:58:08;24.77;;;22.57;;
23682;SDS011;24897;53.514;10.482;2023-11-21T13:00:53;24.17;;;22.10;;
23682;SDS011;24897;53.514;10.482;2023-11-21T13:03:39;25.07;;;22.87;;
23682;SDS011;24897;53.514;10.482;2023-11-21T13:06:24;25.00;;;22.90;;
23682;SDS011;24897;53.514;10.482;2023-11-21T13:09:09;24.97;;;22.97;;
23682;SDS011;24897;53.514;10.482;2023-11-21T13:11:59;24.00;;;21.90;;
23682;SDS011;24897;53.514;10.482;2023-11-21T13:14:47;24.40;;;22.10;;
23682;SDS011;24897;53.514;10.482;2023-11-21T13:17:31;24.20;;;22.10;;
23682;SDS011;24897;53.514;10.482;2023-11-21T13:20:15;23.77;;;21.77;;
23682;SDS011;24897;53.514;10.482;2023-11-21T13:23:00;25.37;;;23.17;;
23682;SDS011;24897;53.514;10.482;2023-11-21T13:25:51;24.73;;;22.53;;
23682;SDS011;24897;53.514;10.482;2023-11-21T13:28:37;25.27;;;22.97;;
23682;SDS011;24897;53.514;10.482;2023-11-21T13:31:20;23.90;;;21.90;;
23682;SDS011;24897;53.514;10.482;2023-11-21T13:34:09;23.43;;;21.53;;
23682;SDS011;24897;53.514;10.482;2023-11-21T13:36:54;23.80;;;21.80;;
23682;SDS011;24897;53.514;10.482;2023-11-21T13:39:42;25.10;;;23.10;;
23682;SDS011;24897;53.514;10.482;2023-11-21T13:42:28;25.10;;;22.97;;
23682;SDS011;24897;53.514;10.482;2023-11-21T13:45:13;27.07;;;24.80;;
23682;SDS011;24897;53.514;10.482;2023-11-21T13:47:57;27.53;;;25.23;;
23682;SDS011;24897;53.514;10.482;2023-11-21T13:50:44;28.83;;;26.23;;
23682;SDS011;24897;53.514;10.482;2023-11-21T13:53:39;25.30;;;23.20;;
23682;SDS011;24897;53.514;10.482;2023-11-21T13:56:25;25.53;;;23.40;;
23682;SDS011;24897;53.514;10.482;2023-11-21T13:59:11;23.53;;;21.57;;
23682;SDS011;24897;53.514;10.482;2023-11-21T14:02:06;23.40;;;21.30;;
23682;SDS011;24897;53.514;10.482;2023-11-21T14:05:01;24.60;;;22.40;;
23682;SDS011;24897;53.514;10.482;2023-11-21T14:07:52;23.47;;;21.47;;
23682;SDS011;24897;53.514;10.482;2023-11-21T14:10:36;22.83;;;20.80;;
23682;SDS011;24897;53.514;10.482;2023-11-21T14:13:27;22.33;;;20.53;;
23682;SDS011;24897;53.514;10.482;2023-11-21T14:16:11;22.40;;;20.60;;
23682;SDS011;24897;53.514;10.482;2023-11-21T14:18:55;21.57;;;19.67;;
23682;SDS011;24897;53.514;10.482;2023-11-21T14:21:46;22.20;;;20.33;;
23682;SDS011;24897;53.514;10.482;2023-11-21T14:24:32;21.67;;;19.73;;
23682;SDS011;24897;53.514;10.482;2023-11-21T14:27:16;22.57;;;20.67;;
23682;SDS011;24897;53.514;10.482;2023-11-21T14:30:00;21.77;;;19.87;;
23682;SDS011;24897;53.514;10.482;2023-11-21T14:32:45;22.07;;;20.27;;
23682;SDS011;24897;53.514;10.482;2023-11-21T14:35:29;22.30;;;20.30;;
23682;SDS011;24897;53.514;10.482;2023-11-21T14:38:16;22.30;;;20.43;;
23682;SDS011;24897;53.514;10.482;2023-11-21T14:41:00;25.57;;;23.10;;
23682;SDS011;24897;53.514;10.482;2023-11-21T14:43:44;23.73;;;21.60;;
23682;SDS011;24897;53.514;10.482;2023-11-21T14:46:31;22.90;;;21.00;;
23682;SDS011;24897;53.514;10.482;2023-11-21T14:49:16;22.37;;;20.57;;
23682;SDS011;24897;53.514;10.482;2023-11-21T14:52:03;22.40;;;20.70;;
23682;SDS011;24897;53.514;10.482;2023-11-21T14:54:51;23.47;;;21.10;;
23682;SDS011;24897;53.514;10.482;2023-11-21T14:57:48;23.57;;;21.47;;
23682;SDS011;24897;53.514;10.482;2023-11-21T15:00:35;23.50;;;21.60;;
23682;SDS011;24897;53.514;10.482;2023-11-21T15:03:19;22.17;;;20.37;;
23682;SDS011;24897;53.514;10.482;2023-11-21T15:06:15;23.63;;;21.73;;
23682;SDS011;24897;53.514;10.482;2023-11-21T15:09:03;24.13;;;22.33;;
23682;SDS011;24897;53.514;10.482;2023-11-21T15:11:50;27.67;;;25.37;;
23682;SDS011;24897;53.514;10.482;2023-11-21T15:17:29;31.00;;;28.30;;
23682;SDS011;24897;53.514;10.482;2023-11-21T15:20:15;30.80;;;28.10;;
23682;SDS011;24897;53.514;10.482;2023-11-21T15:23:02;32.53;;;29.57;;
23682;SDS011;24897;53.514;10.482;2023-11-21T15:25:48;30.80;;;28.20;;
23682;SDS011;24897;53.514;10.482;2023-11-21T15:28:32;30.80;;;28.10;;
23682;SDS011;24897;53.514;10.482;2023-11-21T15:31:17;31.87;;;29.07;;
23682;SDS011;24897;53.514;10.482;2023-11-21T15:34:08;32.03;;;29.13;;
23682;SDS011;24897;53.514;10.482;2023-11-21T15:36:52;31.67;;;28.90;;
23682;SDS011;24897;53.514;10.482;2023-11-21T15:39:38;31.10;;;28.30;;
23682;SDS011;24897;53.514;10.482;2023-11-21T15:42:23;31.03;;;28.13;;
23682;SDS011;24897;53.514;10.482;2023-11-21T15:45:07;30.47;;;27.87;;
23682;SDS011;24897;53.514;10.482;2023-11-21T15:47:51;29.20;;;26.33;;
23682;SDS011;24897;53.514;10.482;2023-11-21T15:50:41;29.43;;;27.00;;
23682;SDS011;24897;53.514;10.482;2023-11-21T15:53:26;30.00;;;27.20;;
23682;SDS011;24897;53.514;10.482;2023-11-21T15:56:10;30.67;;;28.07;;
23682;SDS011;24897;53.514;10.482;2023-11-21T15:58:56;30.40;;;27.67;;
23682;SDS011;24897;53.514;10.482;2023-11-21T16:01:40;29.53;;;27.03;;
23682;SDS011;24897;53.514;10.482;2023-11-21T16:04:26;29.83;;;27.23;;
23682;SDS011;24897;53.514;10.482;2023-11-21T16:07:11;29.23;;;26.83;;